Time;durP1;ratioP1;P1;durP2;ratioP2;P2;SDS_P1;SDS_P2;PMS_P1;PMS_P2;Temp;Humidity;BMP_temperature;BMP_pressure;BME280_temperature;BME280_humidity;BME280_pressure;Samples;Min_cycle;Max_cycle;Signal;HPM_P1;HPM_P2
2021/04/14 00:01:17;;;;;;;13.13;11.50;;;;;;;;;;4091125;34;20070;-80
2021/04/14 00:03:47;;;;;;;6.43;4.12;;;;;;;;;;4087332;34;20165;-81
2021/04/14 00:06:33;;;;;;;16.20;14.50;;;;;;;;;;4089893;34;20462;-80
2021/04/14 00:09:01;;;;;;;22.30;15.63;;;;;;;;;;4091202;34;20187;-80
2021/04/14 00:11:35;;;;;;;8.73;3.25;;;;;;;;;;4090197;34;20254;-82
2021/04/14 00:14:06;;;;;;;6.47;3.10;;;;;;;;;;4088702;34;20120;-79
2021/04/14 00:16:34;;;;;;;6.65;2.90;;;;;;;;;;4088505;34;20944;-81
2021/04/14 00:19:03;;;;;;;5.03;2.62;;;;;;;;;;4089954;34;20476;-79
2021/04/14 00:21:33;;;;;;;8.13;2.97;;;;;;;;;;4100747;35;20074;-80
2021/04/14 00:24:01;;;;;;;5.72;2.60;;;;;;;;;;4096934;34;20113;-80
2021/04/14 00:26:30;;;;;;;8.68;7.93;;;;;;;;;;4096490;34;20148;-79
2021/04/14 00:28:57;;;;;;;4.62;3.72;;;;;;;;;;4092765;34;20100;-80
2021/04/14 00:31:37;;;;;;;2.45;1.80;;;;;;;;;;4088238;34;20092;-81
2021/04/14 00:34:11;;;;;;;3.70;1.73;;;;;;;;;;4089388;34;20455;-80
2021/04/14 00:36:42;;;;;;;2.58;1.37;;;;;;;;;;4096340;34;20058;-82
2021/04/14 00:39:12;;;;;;;5.95;1.77;;;;;;;;;;4091103;35;20557;-80
2021/04/14 00:41:43;;;;;;;3.78;1.83;;;;;;;;;;4105105;35;20125;-80
2021/04/14 00:44:11;;;;;;;4.75;1.45;;;;;;;;;;4097516;34;20132;-81
2021/04/14 00:46:40;;;;;;;3.95;1.65;;;;;;;;;;4092120;34;20152;-81
2021/04/14 00:49:11;;;;;;;3.08;1.70;;;;;;;;;;4091670;34;20149;-81
2021/04/14 00:51:40;;;;;;;4.32;1.60;;;;;;;;;;4094327;34;20066;-80
2021/04/14 00:54:08;;;;;;;4.10;2.00;;;;;;;;;;4092376;34;20084;-82
2021/04/14 00:56:36;;;;;;;3.65;1.62;;;;;;;;;;4091077;34;20113;-81
2021/04/14 00:59:05;;;;;;;6.25;2.10;;;;;;;;;;4099953;34;20054;-79
2021/04/14 01:01:33;;;;;;;5.40;1.95;;;;;;;;;;4102926;34;20084;-79
2021/04/14 01:04:01;;;;;;;5.43;1.90;;;;;;;;;;4092321;34;20254;-80
2021/04/14 01:06:29;;;;;;;5.45;2.08;;;;;;;;;;4094472;34;20131;-80
2021/04/14 01:08:58;;;;;;;3.17;2.10;;;;;;;;;;4094503;34;20057;-81
2021/04/14 01:11:30;;;;;;;5.40;2.05;;;;;;;;;;4091906;34;20125;-80
2021/04/14 01:13:58;;;;;;;3.20;1.60;;;;;;;;;;4091157;34;20073;-80
2021/04/14 01:16:26;;;;;;;3.35;2.00;;;;;;;;;;4095170;34;20155;-80
2021/04/14 01:18:58;;;;;;;7.30;2.30;;;;;;;;;;4097520;34;20109;-81
2021/04/14 01:21:32;;;;;;;3.30;1.65;;;;;;;;;;4091819;34;20101;-79
2021/04/14 01:24:00;;;;;;;3.45;1.73;;;;;;;;;;4090937;34;22475;-80
2021/04/14 01:26:28;;;;;;;4.90;2.35;;;;;;;;;;4091298;34;20073;-80
2021/04/14 01:28:56;;;;;;;2.85;1.70;;;;;;;;;;4087219;34;20137;-80
2021/04/14 01:31:33;;;;;;;5.07;2.08;;;;;;;;;;4094097;34;20101;-80
2021/04/14 01:34:06;;;;;;;6.82;1.90;;;;;;;;;;4098595;34;20070;-80
2021/04/14 01:36:35;;;;;;;4.15;2.15;;;;;;;;;;4104110;35;20061;-80
2021/04/14 01:39:05;;;;;;;4.95;2.20;;;;;;;;;;4101637;34;20077;-81
2021/04/14 01:41:35;;;;;;;5.57;2.60;;;;;;;;;;4090570;34;20413;-81
2021/04/14 01:44:10;;;;;;;11.23;9.65;;;;;;;;;;4091973;34;20101;-83
2021/04/14 01:46:42;;;;;;;12.07;11.05;;;;;;;;;;4090166;34;20073;-80
2021/04/14 01:49:12;;;;;;;12.95;11.73;;;;;;;;;;4090442;34;20134;-81
2021/04/14 01:51:42;;;;;;;13.57;12.27;;;;;;;;;;4097497;34;20068;-80
2021/04/14 01:54:10;;;;;;;15.88;14.18;;;;;;;;;;4094276;34;20500;-80
2021/04/14 01:56:43;;;;;;;17.17;14.02;;;;;;;;;;4103389;35;20081;-81
2021/04/14 01:59:16;;;;;;;7.78;4.70;;;;;;;;;;4091116;34;20101;-81
2021/04/14 02:01:45;;;;;;;5.80;2.47;;;;;;;;;;4087525;34;20119;-80
2021/04/14 02:04:14;;;;;;;12.68;11.38;;;;;;;;;;4086552;34;20073;-81
2021/04/14 02:06:42;;;;;;;14.65;12.93;;;;;;;;;;4089520;34;20089;-80
2021/04/14 02:09:13;;;;;;;13.93;11.23;;;;;;;;;;4089889;34;20085;-80
2021/04/14 02:11:42;;;;;;;14.07;11.10;;;;;;;;;;4093224;34;20144;-80
2021/04/14 02:14:10;;;;;;;15.13;11.57;;;;;;;;;;4092766;34;20433;-80
2021/04/14 02:16:38;;;;;;;13.93;11.90;;;;;;;;;;4103445;35;20088;-80
2021/04/14 02:19:11;;;;;;;18.42;12.30;;;;;;;;;;4066664;35;20078;-81
2021/04/14 02:21:39;;;;;;;14.10;11.75;;;;;;;;;;4084560;35;20092;-81
2021/04/14 02:24:09;;;;;;;12.80;9.65;;;;;;;;;;4078217;35;20139;-81
2021/04/14 02:26:37;;;;;;;13.68;12.18;;;;;;;;;;4081550;35;20077;-80
2021/04/14 02:29:08;;;;;;;15.48;12.73;;;;;;;;;;4080898;35;20839;-80
2021/04/14 02:31:37;;;;;;;13.10;10.23;;;;;;;;;;4081378;35;20097;-80
2021/04/14 02:34:13;;;;;;;10.55;9.52;;;;;;;;;;4087119;35;20655;-80
2021/04/14 02:36:59;;;;;;;11.27;9.07;;;;;;;;;;4092884;35;20086;-80
2021/04/14 02:39:29;;;;;;;12.07;8.30;;;;;;;;;;4084472;35;20557;-81
2021/04/14 02:41:58;;;;;;;12.15;8.20;;;;;;;;;;4080280;35;20066;-81
2021/04/14 02:44:26;;;;;;;10.15;5.62;;;;;;;;;;4081272;35;20062;-81
2021/04/14 02:46:56;;;;;;;10.32;6.00;;;;;;;;;;4078969;35;20127;-81
2021/04/14 02:49:29;;;;;;;9.73;4.78;;;;;;;;;;4082465;35;20826;-82
2021/04/14 02:52:17;;;;;;;8.75;4.20;;;;;;;;;;4083270;35;20058;-81
2021/04/14 02:54:50;;;;;;;9.95;4.65;;;;;;;;;;4076540;35;20902;-80
2021/04/14 02:57:19;;;;;;;6.50;3.17;;;;;;;;;;4087032;35;20118;-80
2021/04/14 02:59:50;;;;;;;7.62;3.00;;;;;;;;;;4087851;35;20089;-80
2021/04/14 03:02:18;;;;;;;6.00;2.28;;;;;;;;;;4084741;35;20188;-81
2021/04/14 03:04:45;;;;;;;8.40;2.65;;;;;;;;;;4093159;35;20058;-81
2021/04/14 03:07:16;;;;;;;11.43;2.80;;;;;;;;;;4093961;35;20071;-80
2021/04/14 03:09:44;;;;;;;10.43;2.90;;;;;;;;;;4084518;35;20095;-82
2021/04/14 03:12:24;;;;;;;9.13;2.67;;;;;;;;;;4143940;29;20097;-95
2021/04/14 03:15:15;;;;;;;6.72;2.53;;;;;;;;;;4114133;34;20089;-93
2021/04/14 03:17:45;;;;;;;8.05;2.40;;;;;;;;;;4128948;34;20199;-95
2021/04/14 03:20:20;;;;;;;6.35;2.45;;;;;;;;;;4120441;34;20060;-94
2021/04/14 03:22:50;;;;;;;4.85;4.03;;;;;;;;;;4121758;34;20077;-94
2021/04/14 03:25:27;;;;;;;9.32;2.78;;;;;;;;;;4104557;34;20089;-94
2021/04/14 03:27:56;;;;;;;8.20;5.12;;;;;;;;;;4101633;34;20079;-95
2021/04/14 03:30:33;;;;;;;16.42;13.10;;;;;;;;;;4116009;34;20174;-94
2021/04/14 03:33:06;;;;;;;10.70;7.70;;;;;;;;;;4108362;34;20057;-93
2021/04/14 03:35:35;;;;;;;7.55;2.50;;;;;;;;;;4110987;34;20224;-93
2021/04/14 03:38:09;;;;;;;8.63;2.70;;;;;;;;;;4101020;34;20057;-94
2021/04/14 03:40:39;;;;;;;7.43;2.75;;;;;;;;;;4112972;34;20093;-94
2021/04/14 03:43:09;;;;;;;8.38;2.70;;;;;;;;;;4114754;34;20458;-94
2021/04/14 03:45:47;;;;;;;13.20;3.12;;;;;;;;;;4122500;34;20731;-93
2021/04/14 03:48:20;;;;;;;9.45;2.62;;;;;;;;;;4123319;34;20057;-94
2021/04/14 03:50:49;;;;;;;9.55;2.75;;;;;;;;;;4103948;34;20054;-94
2021/04/14 03:53:28;;;;;;;8.63;2.67;;;;;;;;;;4114121;34;20084;-95
2021/04/14 03:55:58;;;;;;;16.80;12.90;;;;;;;;;;4114651;34;20486;-93
2021/04/14 03:58:33;;;;;;;8.82;6.60;;;;;;;;;;4123906;34;20087;-94
2021/04/14 04:01:17;;;;;;;9.15;2.75;;;;;;;;;;4123967;34;20052;-94
2021/04/14 04:04:05;;;;;;;10.00;2.67;;;;;;;;;;4106493;34;20119;-94
2021/04/14 04:06:40;;;;;;;9.75;3.15;;;;;;;;;;4118944;34;20053;-94
2021/04/14 04:09:20;;;;;;;10.18;2.62;;;;;;;;;;4112601;34;20088;-93
2021/04/14 04:11:56;;;;;;;6.43;2.70;;;;;;;;;;4124768;34;20093;-95
2021/04/14 04:14:49;;;;;;;10.67;3.27;;;;;;;;;;4116710;34;20065;-94
2021/04/14 04:17:22;;;;;;;10.02;3.00;;;;;;;;;;4126015;34;20079;-94
2021/04/14 04:19:52;;;;;;;5.83;2.53;;;;;;;;;;4115476;34;20470;-93
2021/04/14 04:22:28;;;;;;;6.25;2.20;;;;;;;;;;4111851;34;20045;-94
2021/04/14 04:25:13;;;;;;;5.78;2.62;;;;;;;;;;4117208;34;20049;-95
2021/04/14 04:28:07;;;;;;;9.07;2.83;;;;;;;;;;4120313;34;20097;-93
2021/04/14 04:30:44;;;;;;;6.82;2.78;;;;;;;;;;4128639;34;20183;-94
2021/04/14 04:33:37;;;;;;;6.93;2.35;;;;;;;;;;4121739;34;20049;-94
2021/04/14 04:36:19;;;;;;;6.07;2.10;;;;;;;;;;4137956;34;20090;-94
2021/04/14 04:38:54;;;;;;;6.78;2.67;;;;;;;;;;4118528;34;20063;-94
2021/04/14 04:41:45;;;;;;;8.10;2.00;;;;;;;;;;4116253;34;20085;-93
2021/04/14 04:44:13;;;;;;;5.90;2.22;;;;;;;;;;4110609;34;20782;-94
2021/04/14 04:46:47;;;;;;;6.30;2.33;;;;;;;;;;4113081;34;20083;-95
2021/04/14 04:49:38;;;;;;;6.65;2.25;;;;;;;;;;4114210;34;20112;-93
2021/04/14 04:52:09;;;;;;;6.35;2.40;;;;;;;;;;4112274;34;20074;-94
2021/04/14 04:54:41;;;;;;;11.60;2.37;;;;;;;;;;4112010;34;20110;-93
2021/04/14 04:57:22;;;;;;;8.40;2.30;;;;;;;;;;4120740;34;20428;-94
2021/04/14 05:00:01;;;;;;;19.90;13.50;;;;;;;;;;4113325;34;20045;-93
2021/04/14 05:02:41;;;;;;;16.73;14.70;;;;;;;;;;4111020;34;20188;-93
2021/04/14 05:05:19;;;;;;;23.62;20.70;;;;;;;;;;4104858;34;20083;-93
2021/04/14 05:07:56;;;;;;;22.10;16.45;;;;;;;;;;4108193;34;20415;-95
2021/04/14 05:10:32;;;;;;;12.75;9.80;;;;;;;;;;4120112;34;20068;-94
2021/04/14 05:13:10;;;;;;;14.87;4.95;;;;;;;;;;4110975;34;20092;-93
2021/04/14 05:15:53;;;;;;;10.80;6.25;;;;;;;;;;4117704;34;20140;-95
2021/04/14 05:18:34;;;;;;;12.25;3.62;;;;;;;;;;4112541;34;20065;-93
2021/04/14 05:21:09;;;;;;;13.80;3.78;;;;;;;;;;4112029;34;20076;-93
2021/04/14 05:23:37;;;;;;;18.05;10.13;;;;;;;;;;4111611;34;20079;-94
2021/04/14 05:26:21;;;;;;;17.83;10.30;;;;;;;;;;4108568;34;20057;-94
2021/04/14 05:29:08;;;;;;;22.98;11.00;;;;;;;;;;4115063;34;20076;-92
2021/04/14 05:31:47;;;;;;;23.73;12.15;;;;;;;;;;4122650;34;20469;-93
2021/04/14 05:34:36;;;;;;;18.77;12.30;;;;;;;;;;4122080;34;20088;-93
2021/04/14 05:37:10;;;;;;;21.80;12.50;;;;;;;;;;4114082;34;20088;-93
2021/04/14 05:39:43;;;;;;;21.00;9.63;;;;;;;;;;4112620;34;20091;-90
2021/04/14 05:42:16;;;;;;;18.92;10.18;;;;;;;;;;4116396;34;20192;-94
2021/04/14 05:44:57;;;;;;;27.98;12.98;;;;;;;;;;4111529;34;20057;-93
2021/04/14 05:47:28;;;;;;;20.83;4.12;;;;;;;;;;4113733;34;20522;-93
2021/04/14 05:49:59;;;;;;;20.90;11.38;;;;;;;;;;4122756;34;20053;-93
2021/04/14 05:52:29;;;;;;;22.02;10.32;;;;;;;;;;4127689;34;20121;-92
2021/04/14 05:55:00;;;;;;;24.37;11.25;;;;;;;;;;4111128;34;20086;-94
2021/04/14 05:57:28;;;;;;;17.10;4.43;;;;;;;;;;4125284;34;20060;-93
2021/04/14 06:00:09;;;;;;;20.80;5.60;;;;;;;;;;4124468;34;20063;-93
2021/04/14 06:02:44;;;;;;;17.15;4.75;;;;;;;;;;4115272;34;20076;-95
2021/04/14 06:05:23;;;;;;;19.12;4.82;;;;;;;;;;4114869;34;20075;-94
2021/04/14 06:07:56;;;;;;;17.23;8.70;;;;;;;;;;4114368;34;20142;-93
2021/04/14 06:10:29;;;;;;;14.45;8.45;;;;;;;;;;4101632;34;20065;-93
2021/04/14 06:12:58;;;;;;;18.33;8.68;;;;;;;;;;4132960;34;20065;-94
2021/04/14 06:15:32;;;;;;;11.90;5.50;;;;;;;;;;4111753;34;20495;-94
2021/04/14 06:18:23;;;;;;;15.90;9.13;;;;;;;;;;4118524;34;20110;-94
2021/04/14 06:20:59;;;;;;;9.55;6.28;;;;;;;;;;4122113;34;21620;-95
2021/04/14 06:24:00;;;;;;;13.82;7.65;;;;;;;;;;4102246;34;20089;-94
2021/04/14 06:26:55;;;;;;;10.73;7.68;;;;;;;;;;4121283;34;20075;-94
2021/04/14 06:29:27;;;;;;;17.70;8.98;;;;;;;;;;4111048;34;20134;-92
2021/04/14 06:31:58;;;;;;;13.05;8.32;;;;;;;;;;4112294;34;20057;-93
2021/04/14 06:34:29;;;;;;;10.88;8.25;;;;;;;;;;4111716;34;20103;-94
2021/04/14 06:37:00;;;;;;;10.32;9.32;;;;;;;;;;4110194;34;20092;-94
2021/04/14 06:39:33;;;;;;;12.20;3.12;;;;;;;;;;4120120;34;20060;-93
2021/04/14 06:42:19;;;;;;;9.20;2.67;;;;;;;;;;4124024;34;20049;-93
2021/04/14 06:44:57;;;;;;;9.10;5.45;;;;;;;;;;4117807;34;20096;-92
2021/04/14 06:47:41;;;;;;;6.57;3.08;;;;;;;;;;4121252;34;20174;-93
2021/04/14 06:50:35;;;;;;;7.03;2.75;;;;;;;;;;4107116;34;20126;-91
2021/04/14 06:53:11;;;;;;;7.07;3.05;;;;;;;;;;4099775;34;20079;-93
2021/04/14 06:56:01;;;;;;;14.10;12.55;;;;;;;;;;4114549;34;20687;-93
2021/04/14 06:58:46;;;;;;;19.02;17.23;;;;;;;;;;4126790;34;20053;-94
2021/04/14 07:01:23;;;;;;;20.02;18.33;;;;;;;;;;4116198;34;20053;-94
2021/04/14 07:03:55;;;;;;;20.92;18.35;;;;;;;;;;4117372;34;20526;-94
2021/04/14 07:06:30;;;;;;;7.37;3.10;;;;;;;;;;4104900;34;20468;-94
2021/04/14 07:09:13;;;;;;;7.70;2.80;;;;;;;;;;4112392;34;20105;-92
2021/04/14 07:11:47;;;;;;;16.83;14.90;;;;;;;;;;4108812;34;20064;-94
2021/04/14 07:14:18;;;;;;;20.50;11.80;;;;;;;;;;4120129;34;20139;-92
2021/04/14 07:17:09;;;;;;;18.70;13.35;;;;;;;;;;4106035;34;20126;-93
2021/04/14 07:20:02;;;;;;;8.88;2.70;;;;;;;;;;4111406;34;20053;-94
2021/04/14 07:22:49;;;;;;;10.18;2.60;;;;;;;;;;4116230;34;20037;-93
2021/04/14 07:25:23;;;;;;;7.75;2.30;;;;;;;;;;4118592;34;20143;-93
2021/04/14 07:27:58;;;;;;;5.82;1.87;;;;;;;;;;4114562;34;20239;-94
2021/04/14 07:30:38;;;;;;;6.07;2.00;;;;;;;;;;4123858;34;20071;-94
2021/04/14 07:33:36;;;;;;;5.57;1.70;;;;;;;;;;4110870;34;20057;-95
2021/04/14 07:36:23;;;;;;;7.90;1.52;;;;;;;;;;4111623;34;20530;-95
2021/04/14 07:39:12;;;;;;;8.60;1.60;;;;;;;;;;4123628;34;20091;-95
2021/04/14 07:41:51;;;;;;;6.97;1.75;;;;;;;;;;4116736;34;20061;-96
2021/04/14 07:45:14;;;;;;;6.50;1.58;;;;;;;;;;4129144;34;20198;-96
2021/04/14 07:48:04;;;;;;;5.32;1.48;;;;;;;;;;4118472;34;20069;-94
2021/04/14 07:50:39;;;;;;;8.25;1.52;;;;;;;;;;4110593;34;20095;-94
2021/04/14 07:53:18;;;;;;;6.97;1.58;;;;;;;;;;4106565;34;20088;-93
2021/04/14 07:56:00;;;;;;;4.05;1.37;;;;;;;;;;4109345;34;20109;-94
2021/04/14 07:58:42;;;;;;;8.27;1.83;;;;;;;;;;4101837;34;20092;-94
2021/04/14 08:01:21;;;;;;;5.30;1.48;;;;;;;;;;4117960;34;20119;-96
2021/04/14 08:03:52;;;;;;;6.20;1.58;;;;;;;;;;4120429;34;20057;-94
2021/04/14 08:06:28;;;;;;;6.03;1.58;;;;;;;;;;4112614;34;20575;-94
2021/04/14 08:09:31;;;;;;;9.00;1.70;;;;;;;;;;4108740;34;20443;-94
2021/04/14 08:12:05;;;;;;;7.97;1.70;;;;;;;;;;4120825;34;20090;-93
2021/04/14 08:14:39;;;;;;;6.30;1.70;;;;;;;;;;4119140;34;20093;-95
2021/04/14 08:17:21;;;;;;;6.68;1.40;;;;;;;;;;4116704;34;20098;-96
2021/04/14 08:20:16;;;;;;;6.28;1.58;;;;;;;;;;4110186;34;20091;-94
2021/04/14 08:22:46;;;;;;;8.15;1.50;;;;;;;;;;4120868;34;20078;-93
2021/04/14 08:25:28;;;;;;;6.78;1.85;;;;;;;;;;4116888;34;20107;-93
2021/04/14 08:27:58;;;;;;;5.37;1.45;;;;;;;;;;4114433;34;20065;-92
2021/04/14 08:30:43;;;;;;;8.77;1.87;;;;;;;;;;4109028;34;20079;-93
2021/04/14 08:33:27;;;;;;;5.95;1.60;;;;;;;;;;4109595;34;20052;-92
2021/04/14 08:36:06;;;;;;;9.05;2.08;;;;;;;;;;4120510;34;20084;-92
2021/04/14 08:38:44;;;;;;;7.10;1.70;;;;;;;;;;4107458;34;20126;-92
2021/04/14 08:41:22;;;;;;;11.00;1.90;;;;;;;;;;4111705;34;20745;-93
2021/04/14 08:44:11;;;;;;;8.52;1.92;;;;;;;;;;4115615;34;20104;-95
2021/04/14 08:46:48;;;;;;;6.12;1.85;;;;;;;;;;4124947;34;20340;-93
2021/04/14 08:49:22;;;;;;;6.80;1.70;;;;;;;;;;4112884;34;20073;-96
2021/04/14 08:51:53;;;;;;;9.68;1.85;;;;;;;;;;4116252;34;20069;-94
2021/04/14 08:54:34;;;;;;;5.50;1.90;;;;;;;;;;4118426;34;20060;-95
2021/04/14 08:57:25;;;;;;;5.85;1.90;;;;;;;;;;4110380;34;20080;-96
2021/04/14 08:59:55;;;;;;;10.07;2.00;;;;;;;;;;4115400;34;20105;-95
2021/04/14 09:02:26;;;;;;;8.30;1.73;;;;;;;;;;4128131;34;20118;-94
2021/04/14 09:05:01;;;;;;;5.55;1.87;;;;;;;;;;4118772;34;20061;-94
2021/04/14 09:07:37;;;;;;;6.35;2.00;;;;;;;;;;4115684;34;20074;-95
2021/04/14 09:10:55;;;;;;;4.35;1.70;;;;;;;;;;4130699;34;20084;-94
2021/04/14 09:14:14;;;;;;;5.18;1.62;;;;;;;;;;4143382;34;20515;-96
2021/04/14 09:16:56;;;;;;;4.95;2.12;;;;;;;;;;4128421;34;20450;-95
2021/04/14 09:19:51;;;;;;;7.68;1.80;;;;;;;;;;4139920;34;20057;-96
2021/04/14 09:22:33;;;;;;;6.30;1.62;;;;;;;;;;4114406;34;20053;-96
2021/04/14 09:25:08;;;;;;;7.62;1.90;;;;;;;;;;4134023;34;20045;-96
2021/04/14 09:31:17;;;;;;;7.55;1.60;;;;;;;;;;4123764;34;20345;-95
2021/04/14 09:33:46;;;;;;;7.03;1.77;;;;;;;;;;4083410;34;20173;-80
2021/04/14 09:36:28;;;;;;;5.78;1.40;;;;;;;;;;4096196;34;20482;-78
2021/04/14 09:39:07;;;;;;;9.30;1.85;;;;;;;;;;4085636;34;20065;-80
2021/04/14 09:41:38;;;;;;;5.30;1.75;;;;;;;;;;4090298;34;20136;-80
2021/04/14 09:44:22;;;;;;;5.00;1.58;;;;;;;;;;4083973;35;20601;-82
2021/04/14 09:47:17;;;;;;;5.70;1.33;;;;;;;;;;4091549;34;20108;-81
2021/04/14 09:49:48;;;;;;;6.40;1.42;;;;;;;;;;4096568;34;20125;-80
2021/04/14 09:52:29;;;;;;;5.90;1.42;;;;;;;;;;4096712;34;20095;-80
2021/04/14 09:55:19;;;;;;;6.85;1.70;;;;;;;;;;4090821;34;20148;-80
2021/04/14 09:57:48;;;;;;;5.50;1.80;;;;;;;;;;4087164;34;20106;-80
2021/04/14 10:00:30;;;;;;;5.87;1.70;;;;;;;;;;4093185;34;20611;-80
2021/04/14 10:03:00;;;;;;;7.40;2.05;;;;;;;;;;4090899;34;20152;-80
2021/04/14 10:05:31;;;;;;;4.20;1.65;;;;;;;;;;4094599;34;20477;-80
2021/04/14 10:08:00;;;;;;;3.92;1.85;;;;;;;;;;4099836;34;20069;-81
2021/04/14 10:10:28;;;;;;;5.10;1.80;;;;;;;;;;4097662;35;20057;-81
2021/04/14 10:12:57;;;;;;;2.58;0.95;;;;;;;;;;4093536;35;20123;-80
2021/04/14 10:15:31;;;;;;;6.32;1.33;;;;;;;;;;4090614;34;20092;-81
2021/04/14 10:18:03;;;;;;;2.50;1.40;;;;;;;;;;4090727;34;20128;-80
2021/04/14 10:20:35;;;;;;;4.93;1.35;;;;;;;;;;4091737;34;20096;-81
2021/04/14 10:23:05;;;;;;;3.45;1.40;;;;;;;;;;4084041;34;20130;-83
2021/04/14 10:25:36;;;;;;;4.97;1.50;;;;;;;;;;4086934;34;20262;-82
2021/04/14 10:28:16;;;;;;;6.72;1.62;;;;;;;;;;4088065;34;20431;-82
2021/04/14 10:31:07;;;;;;;7.22;1.75;;;;;;;;;;4092853;35;20112;-81
2021/04/14 10:33:39;;;;;;;5.15;1.77;;;;;;;;;;4101821;34;20066;-80
2021/04/14 10:36:24;;;;;;;6.90;1.50;;;;;;;;;;4095562;34;20120;-83
2021/04/14 10:38:53;;;;;;;4.72;1.48;;;;;;;;;;4091959;34;20120;-81
2021/04/14 10:41:24;;;;;;;3.53;1.30;;;;;;;;;;4101916;34;20132;-82
2021/04/14 10:43:52;;;;;;;6.78;1.23;;;;;;;;;;4099094;34;20099;-81
2021/04/14 10:46:24;;;;;;;4.75;1.40;;;;;;;;;;4099111;34;20525;-80
2021/04/14 10:48:58;;;;;;;5.30;1.58;;;;;;;;;;4107481;34;20076;-82
2021/04/14 10:51:47;;;;;;;8.50;1.30;;;;;;;;;;4094484;34;20117;-80
2021/04/14 10:54:16;;;;;;;5.47;1.70;;;;;;;;;;4099874;34;20429;-80
2021/04/14 10:56:45;;;;;;;4.18;1.17;;;;;;;;;;4104700;34;20074;-79
2021/04/14 10:59:15;;;;;;;6.40;1.33;;;;;;;;;;4107934;34;20696;-81
2021/04/14 11:01:47;;;;;;;4.25;1.17;;;;;;;;;;4099618;34;20649;-81
2021/04/14 11:04:15;;;;;;;7.10;1.83;;;;;;;;;;4099946;34;20634;-80
2021/04/14 11:06:48;;;;;;;4.93;1.30;;;;;;;;;;4105570;34;20127;-78
2021/04/14 11:09:18;;;;;;;5.78;1.60;;;;;;;;;;4107275;34;20117;-80
2021/04/14 11:11:47;;;;;;;4.93;1.30;;;;;;;;;;4102629;34;20556;-80
2021/04/14 11:14:17;;;;;;;5.05;1.23;;;;;;;;;;4095212;34;20604;-81
2021/04/14 11:16:46;;;;;;;4.78;1.35;;;;;;;;;;4100215;34;20108;-79
2021/04/14 11:19:22;;;;;;;5.50;1.20;;;;;;;;;;4097697;34;20398;-78
2021/04/14 11:22:07;;;;;;;4.93;1.30;;;;;;;;;;4089133;34;20135;-79
2021/04/14 11:24:52;;;;;;;7.53;1.50;;;;;;;;;;4095324;34;20065;-80
2021/04/14 11:27:28;;;;;;;3.25;1.20;;;;;;;;;;4101371;34;20480;-80
2021/04/14 11:30:13;;;;;;;7.97;1.65;;;;;;;;;;4100484;34;20132;-81
2021/04/14 11:32:52;;;;;;;9.18;1.60;;;;;;;;;;4099041;34;20128;-81
2021/04/14 11:35:29;;;;;;;4.45;1.52;;;;;;;;;;4097747;34;20117;-80
2021/04/14 11:37:58;;;;;;;7.12;1.60;;;;;;;;;;4099864;34;20123;-81
2021/04/14 11:40:31;;;;;;;5.93;1.40;;;;;;;;;;4099139;34;20078;-80
2021/04/14 11:43:05;;;;;;;3.97;1.30;;;;;;;;;;4106839;34;20526;-80
2021/04/14 11:45:37;;;;;;;5.13;1.70;;;;;;;;;;4099771;34;20073;-80
2021/04/14 11:48:16;;;;;;;4.70;1.40;;;;;;;;;;4100031;34;20507;-79
2021/04/14 11:50:45;;;;;;;5.93;1.40;;;;;;;;;;4102768;34;20065;-80
2021/04/14 11:53:30;;;;;;;4.15;1.37;;;;;;;;;;4100123;34;20136;-79
2021/04/14 11:56:02;;;;;;;5.53;1.33;;;;;;;;;;4097024;34;20462;-80
2021/04/14 11:58:30;;;;;;;5.57;1.42;;;;;;;;;;4100144;34;20141;-80
2021/04/14 12:00:59;;;;;;;7.53;1.23;;;;;;;;;;4102169;34;20465;-80
2021/04/14 12:03:34;;;;;;;5.53;1.37;;;;;;;;;;4099823;34;20104;-79
2021/04/14 12:06:03;;;;;;;2.67;1.30;;;;;;;;;;4100288;34;20133;-80
2021/04/14 12:08:31;;;;;;;4.25;1.42;;;;;;;;;;4104371;34;20513;-82
2021/04/14 12:11:04;;;;;;;5.57;1.40;;;;;;;;;;4105802;34;20068;-79
2021/04/14 12:13:39;;;;;;;2.80;1.20;;;;;;;;;;4098682;34;20049;-79
2021/04/14 12:16:07;;;;;;;2.58;1.10;;;;;;;;;;4100683;34;20486;-79
2021/04/14 12:18:39;;;;;;;5.82;1.40;;;;;;;;;;4101571;34;20069;-79
2021/04/14 12:21:07;;;;;;;5.82;1.40;;;;;;;;;;4102611;34;20061;-78
2021/04/14 12:23:36;;;;;;;7.85;1.50;;;;;;;;;;4098296;34;20185;-80
2021/04/14 12:26:04;;;;;;;4.05;1.30;;;;;;;;;;4105644;34;20175;-80
2021/04/14 12:28:32;;;;;;;4.60;1.35;;;;;;;;;;4104319;34;20070;-78
2021/04/14 12:31:08;;;;;;;4.60;1.33;;;;;;;;;;4099533;34;20053;-78
2021/04/14 12:33:53;;;;;;;4.50;1.50;;;;;;;;;;4104767;34;20053;-78
2021/04/14 12:36:21;;;;;;;5.95;1.52;;;;;;;;;;4110362;34;20536;-79
2021/04/14 12:38:49;;;;;;;6.07;1.60;;;;;;;;;;4097899;34;20115;-81
2021/04/14 12:41:17;;;;;;;3.55;1.25;;;;;;;;;;4087102;34;20764;-81
2021/04/14 12:43:51;;;;;;;3.05;1.30;;;;;;;;;;4088103;34;20124;-81
2021/04/14 12:46:20;;;;;;;4.78;1.40;;;;;;;;;;4095513;34;20060;-80
2021/04/14 12:48:50;;;;;;;5.32;1.37;;;;;;;;;;4103326;34;20139;-79
2021/04/14 12:51:33;;;;;;;5.70;1.40;;;;;;;;;;4097424;34;20713;-80
2021/04/14 12:54:11;;;;;;;5.75;1.52;;;;;;;;;;4097853;34;20097;-81
2021/04/14 12:57:01;;;;;;;3.80;1.37;;;;;;;;;;4110228;34;20131;-78
2021/04/14 12:59:32;;;;;;;5.03;1.50;;;;;;;;;;4099915;34;20073;-80
2021/04/14 13:02:04;;;;;;;8.73;1.30;;;;;;;;;;4098419;34;20123;-80
2021/04/14 13:04:48;;;;;;;5.35;1.40;;;;;;;;;;4096116;34;20101;-79
2021/04/14 13:07:43;;;;;;;4.75;1.33;;;;;;;;;;4109606;34;20522;-77
2021/04/14 13:10:12;;;;;;;5.55;1.40;;;;;;;;;;4095413;34;20505;-80
2021/04/14 13:12:40;;;;;;;5.60;1.15;;;;;;;;;;4098121;34;20075;-79
2021/04/14 13:15:14;;;;;;;5.03;1.35;;;;;;;;;;4103657;34;20108;-78
2021/04/14 13:17:46;;;;;;;5.50;1.70;;;;;;;;;;4100848;34;20143;-78
2021/04/14 13:20:19;;;;;;;2.47;0.93;;;;;;;;;;4100972;34;20116;-81
2021/04/14 13:22:52;;;;;;;4.62;1.60;;;;;;;;;;4096249;34;20120;-77
2021/04/14 13:25:38;;;;;;;6.50;1.30;;;;;;;;;;4106941;34;20216;-78
2021/04/14 13:28:09;;;;;;;4.20;0.98;;;;;;;;;;4103215;34;20167;-78
2021/04/14 13:30:42;;;;;;;3.53;1.23;;;;;;;;;;4096240;34;20547;-78
2021/04/14 13:33:36;;;;;;;6.73;1.70;;;;;;;;;;4093786;34;20789;-78
2021/04/14 13:36:04;;;;;;;5.53;1.35;;;;;;;;;;4076616;34;20551;-80
2021/04/14 13:38:34;;;;;;;5.53;1.30;;;;;;;;;;4095897;34;20139;-81
2021/04/14 13:41:22;;;;;;;7.10;1.08;;;;;;;;;;4090852;34;20116;-79
2021/04/14 13:43:57;;;;;;;7.00;1.58;;;;;;;;;;4099666;34;20070;-79
2021/04/14 13:46:35;;;;;;;7.35;1.70;;;;;;;;;;4099294;34;20660;-79
2021/04/14 13:49:07;;;;;;;6.70;1.58;;;;;;;;;;4113994;34;20062;-79
2021/04/14 13:51:47;;;;;;;6.00;1.40;;;;;;;;;;4106790;34;20061;-81
2021/04/14 13:54:17;;;;;;;6.07;1.60;;;;;;;;;;4101833;34;20141;-78
2021/04/14 13:56:47;;;;;;;7.75;1.50;;;;;;;;;;4098036;34;20147;-79
2021/04/14 13:59:33;;;;;;;8.38;1.77;;;;;;;;;;4098125;34;20100;-81
2021/04/14 14:02:06;;;;;;;6.00;1.37;;;;;;;;;;4094554;34;20084;-81
2021/04/14 14:04:35;;;;;;;5.35;1.33;;;;;;;;;;4098937;34;20061;-79
2021/04/14 14:07:16;;;;;;;6.28;1.50;;;;;;;;;;4104297;34;20132;-78
2021/04/14 14:09:48;;;;;;;5.82;1.52;;;;;;;;;;4103884;34;20065;-80
2021/04/14 14:12:20;;;;;;;10.55;1.55;;;;;;;;;;4096891;34;20545;-78
2021/04/14 14:14:49;;;;;;;5.45;1.60;;;;;;;;;;4101802;34;20282;-80
2021/04/14 14:17:29;;;;;;;3.92;1.30;;;;;;;;;;4096511;34;20624;-80
2021/04/14 14:19:58;;;;;;;4.97;1.33;;;;;;;;;;4092393;34;20101;-80
2021/04/14 14:22:27;;;;;;;4.87;1.50;;;;;;;;;;4100385;34;20460;-80
2021/04/14 14:24:55;;;;;;;7.50;1.60;;;;;;;;;;4105964;34;20088;-81
2021/04/14 14:27:25;;;;;;;8.75;1.70;;;;;;;;;;4112632;34;20092;-79
2021/04/14 14:30:08;;;;;;;6.78;1.67;;;;;;;;;;4097008;34;20116;-78
2021/04/14 14:32:37;;;;;;;4.57;1.60;;;;;;;;;;4093821;34;20678;-81
2021/04/14 14:35:10;;;;;;;7.12;1.85;;;;;;;;;;4107073;34;20446;-79
2021/04/14 14:37:45;;;;;;;6.05;1.60;;;;;;;;;;4110923;34;20080;-79
2021/04/14 14:40:19;;;;;;;6.62;1.30;;;;;;;;;;4100947;34;20311;-78
2021/04/14 14:42:51;;;;;;;5.85;1.48;;;;;;;;;;4108458;34;20474;-79
2021/04/14 14:45:24;;;;;;;6.68;1.60;;;;;;;;;;4111469;34;20087;-80
2021/04/14 14:47:58;;;;;;;6.82;1.70;;;;;;;;;;4109728;34;20097;-80
2021/04/14 14:50:30;;;;;;;5.85;1.50;;;;;;;;;;4095112;34;20120;-80
2021/04/14 14:53:00;;;;;;;6.35;1.55;;;;;;;;;;4095731;34;20074;-79
2021/04/14 14:55:28;;;;;;;6.37;1.65;;;;;;;;;;4095330;34;20232;-79
2021/04/14 14:58:03;;;;;;;6.37;1.58;;;;;;;;;;4095401;34;20160;-80
2021/04/14 15:00:31;;;;;;;8.50;1.83;;;;;;;;;;4101772;34;20124;-79
2021/04/14 15:03:00;;;;;;;6.45;1.60;;;;;;;;;;4103208;34;20556;-79
2021/04/14 15:05:28;;;;;;;5.93;1.55;;;;;;;;;;4094722;34;20172;-80
2021/04/14 15:07:56;;;;;;;7.75;1.62;;;;;;;;;;4103374;34;20615;-80
2021/04/14 15:10:26;;;;;;;5.68;1.70;;;;;;;;;;4100837;34;20091;-78
2021/04/14 15:12:54;;;;;;;15.00;2.10;;;;;;;;;;4105047;34;20061;-79
2021/04/14 15:15:23;;;;;;;6.40;1.70;;;;;;;;;;4098789;34;20241;-78
2021/04/14 15:17:51;;;;;;;4.20;1.65;;;;;;;;;;4104905;34;20766;-80
2021/04/14 15:20:21;;;;;;;7.07;1.58;;;;;;;;;;4107191;34;20088;-77
2021/04/14 15:22:51;;;;;;;10.35;1.85;;;;;;;;;;4111262;34;20535;-80
2021/04/14 15:25:19;;;;;;;6.90;1.62;;;;;;;;;;4109772;34;20065;-79
2021/04/14 15:27:47;;;;;;;6.45;1.42;;;;;;;;;;4097224;34;20211;-80
2021/04/14 15:30:18;;;;;;;8.35;1.87;;;;;;;;;;4084511;34;20113;-79